Weather reports worldwide

Advertisment
San Vicente, Spain (8017): temperature & dewpoint: 10.12.2019 03:00:00 - 16.12.2019 03:00:00 (CET)San Vicente, Spain (8017): wind speed & gusts: 10.12.2019 03:00:00 - 16.12.2019 03:00:00 (CET)San Vicente, Spain (8017): wind direction: 10.12.2019 03:00:00 - 16.12.2019 03:00:00 (CET)San Vicente, Spain (8017): precipitation: 10.12.2019 03:00:00 - 16.12.2019 03:00:00 (CET)
Date & Time tt [°C] td [°C] ff [km/h] ff [kn] fx [km/h] fx [kn] dd rr [mm]
16.12.2019 03:00:00 10,9 10,1 0 0 10 5 W 0,3
16.12.2019 02:00:00 11,3 10,5 5 3 12 7 WNW 0,2
16.12.2019 01:00:00 11,1 10,3 4 2 9 5 W -
16.12.2019 00:00:00 10,6 10,0 6 3 12 6 SSW 0,0
15.12.2019 23:00:00 10,5 9,9 6 4 11 6 SSW 0,1
15.12.2019 22:00:00 10,5 9,9 7 4 11 6 SSW 0,0
15.12.2019 21:00:00 10,7 10,1 0 0 5 3 N 0,3
15.12.2019 20:00:00 10,7 10,1 0 0 12 6 NNE 0,2
15.12.2019 19:00:00 10,7 9,9 6 3 13 7 ENE -
15.12.2019 18:00:00 10,8 10,0 1 1 12 7 E 0,3
15.12.2019 17:00:00 11,0 9,9 4 2 14 7 NE 0,0
15.12.2019 16:00:00 10,7 9,9 7 4 19 11 NNE 0,0
15.12.2019 15:00:00 10,8 10,0 7 4 41 22 N 0,2
15.12.2019 14:00:00 12,1 10,3 16 9 33 18 WNW 0,0
15.12.2019 13:00:00 13,6 11,3 5 3 10 5 NNE -
15.12.2019 12:00:00 13,1 12,2 1 1 6 3 SSE 0,0
15.12.2019 11:00:00 12,3 11,4 4 2 13 7 ENE 0,0
15.12.2019 10:00:00 12,0 11,2 4 2 11 6 E 1,4
15.12.2019 09:00:00 12,1 11,2 6 3 13 7 NE 1,0
15.12.2019 08:00:00 12,7 11,3 0 0 0 0 N 0,5
15.12.2019 07:00:00 12,9 11,3 1 0 10 5 NNE -
15.12.2019 06:00:00 13,2 11,6 7 4 27 14 NW 0,0
15.12.2019 05:00:00 13,1 11,3 20 11 40 22 NW 0,0
15.12.2019 04:00:00 15,7 4,1 3 2 15 8 WSW 0,0
15.12.2019 03:00:00 15,0 3,8 1 1 20 11 SW 0,0
15.12.2019 02:00:00 14,7 3,8 3 2 14 8 SSW 0,0
15.12.2019 01:00:00 15,0 4,4 6 3 14 8 SSW -
15.12.2019 00:00:00 14,5 4,2 2 1 16 9 SW 0,0
14.12.2019 23:00:00 14,1 5,5 2 1 12 7 WSW 0,0
14.12.2019 22:00:00 12,7 6,7 2 1 14 7 SW 0,0
14.12.2019 21:00:00 11,7 8,0 10 5 15 8 SSW 0,0
14.12.2019 20:00:00 11,7 8,6 12 6 15 8 S 0,0
14.12.2019 19:00:00 13,2 9,3 3 2 16 9 SW -
14.12.2019 18:00:00 13,9 9,4 10 6 25 14 W 0,0
14.12.2019 17:00:00 14,6 6,7 17 9 24 13 W 0,0
14.12.2019 16:00:00 17,3 6,5 4 2 17 9 S 0,0
14.12.2019 15:00:00 15,6 10,6 2 1 10 5 SE 0,0
14.12.2019 14:00:00 14,6 8,6 11 6 15 8 W 0,0
14.12.2019 13:00:00 15,7 7,7 0 0 13 7 NNE -
14.12.2019 12:00:00 14,0 7,8 1 1 13 7 ESE 0,0
14.12.2019 11:00:00 12,3 7,4 8 4 17 9 S 0,0
14.12.2019 10:00:00 10,1 6,8 14 7 18 10 SSW 0,0
14.12.2019 09:00:00 11,0 6,0 6 3 19 10 SSW 0,0
14.12.2019 08:00:00 11,2 6,2 8 4 18 10 SSW 0,0
14.12.2019 07:00:00 10,5 7,4 8 4 19 10 SSW -
14.12.2019 06:00:00 10,2 7,6 13 7 18 10 SSW 0,0
14.12.2019 05:00:00 9,7 8,0 13 7 17 9 SSW 0,0
14.12.2019 04:00:00 10,1 8,0 13 7 17 9 SSW 0,0
14.12.2019 03:00:00 11,0 8,2 9 5 17 9 SSW 0,0
14.12.2019 02:00:00 11,6 8,6 10 5 16 9 SSW 0,0
14.12.2019 01:00:00 11,8 9,2 5 3 16 9 SW -
14.12.2019 00:00:00 11,7 9,4 9 5 27 15 S 0,0
13.12.2019 23:00:00 13,5 11,0 19 10 30 16 W 0,0
13.12.2019 22:00:00 13,8 10,6 24 13 46 25 W 0,0
13.12.2019 21:00:00 14,2 10,2 25 14 42 23 W 0,0
13.12.2019 20:00:00 14,3 11,1 19 11 47 25 W 0,0
13.12.2019 19:00:00 14,2 11,5 31 17 46 25 W -
13.12.2019 18:00:00 14,4 12,1 25 13 51 27 WNW 0,0
13.12.2019 17:00:00 14,6 11,9 34 19 56 31 WNW 0,0
13.12.2019 16:00:00 15,0 12,3 33 18 59 32 W 0,0
13.12.2019 15:00:00 15,4 12,3 29 15 61 33 WNW 0,0
13.12.2019 14:00:00 15,4 12,0 33 18 53 29 WNW 0,0
13.12.2019 13:00:00 16,6 10,5 27 15 56 30 WNW -
13.12.2019 12:00:00 16,0 11,6 28 15 55 30 WNW 0,0
13.12.2019 11:00:00 15,6 11,4 37 20 61 33 WNW 0,0
13.12.2019 10:00:00 15,9 10,7 36 20 57 31 W 0,0
13.12.2019 09:00:00 15,0 11,6 31 17 56 30 W 0,0
13.12.2019 08:00:00 13,8 12,4 22 12 61 33 W 0,2
13.12.2019 07:00:00 14,1 12,1 35 19 64 35 WNW -
13.12.2019 06:00:00 15,0 12,1 29 16 55 30 W 0,0
13.12.2019 05:00:00 14,4 12,3 32 17 74 40 W 0,0
13.12.2019 04:00:00 14,8 12,1 42 23 64 35 WNW 0,0
13.12.2019 03:00:00 15,0 11,8 32 17 59 32 WNW 0,3
13.12.2019 02:00:00 14,4 13,0 21 12 48 26 W 0,5
13.12.2019 01:00:00 14,2 12,9 20 11 44 24 W -
13.12.2019 00:00:00 13,6 12,8 28 15 46 25 W 0,4
12.12.2019 23:00:00 13,7 12,8 25 13 38 21 W 0,8
12.12.2019 22:00:00 13,8 12,7 25 13 41 22 W 1,9
12.12.2019 21:00:00 13,8 12,2 16 9 43 23 W 0,5
12.12.2019 20:00:00 13,9 12,3 26 14 56 30 W 0,3
12.12.2019 19:00:00 13,4 12,5 31 17 63 34 W -
12.12.2019 18:00:00 13,6 12,0 34 18 65 35 W 1,0
12.12.2019 17:00:00 13,6 11,1 30 16 62 33 W 1,1
12.12.2019 16:00:00 14,1 10,1 36 19 66 36 W 0,3
12.12.2019 15:00:00 14,7 8,9 28 15 64 35 W 0,1
12.12.2019 14:00:00 14,4 8,6 21 11 46 25 W 0,1
12.12.2019 13:00:00 11,1 8,0 5 3 27 15 SSW -
12.12.2019 12:00:00 10,1 8,0 7 4 14 8 SSW 0,1
12.12.2019 11:00:00 9,9 7,8 9 5 13 7 S 0,0
12.12.2019 10:00:00 10,3 7,2 6 3 26 14 S 0,3
12.12.2019 09:00:00 11,3 6,8 3 2 35 19 WSW 0,1
12.12.2019 08:00:00 12,1 5,7 9 5 28 15 W 0,0
12.12.2019 07:00:00 10,7 5,3 6 4 19 11 SSW -
12.12.2019 06:00:00 11,3 5,2 3 1 18 10 WSW 0,1
12.12.2019 05:00:00 11,4 4,9 1 0 31 17 S 0,0
12.12.2019 04:00:00 12,2 4,7 9 5 29 16 W 0,0
12.12.2019 03:00:00 12,5 4,2 11 6 33 18 W 0,0
12.12.2019 02:00:00 12,6 4,8 17 9 51 28 W 0,0
12.12.2019 01:00:00 12,6 4,6 24 13 40 21 W -
12.12.2019 00:00:00 12,5 5,0 21 11 51 27 W 0,0
11.12.2019 23:00:00 12,2 4,4 20 11 45 25 W 0,0
11.12.2019 22:00:00 12,1 5,1 27 15 48 26 W 0,0
11.12.2019 21:00:00 11,1 5,6 18 10 46 25 W 0,1
11.12.2019 20:00:00 10,2 6,9 36 19 65 35 WNW 0,3
11.12.2019 19:00:00 12,8 2,7 31 17 63 34 W -
11.12.2019 18:00:00 12,9 2,5 35 19 60 32 W 0,0
11.12.2019 17:00:00 12,9 1,6 31 17 51 28 W 0,0
11.12.2019 16:00:00 13,3 1,3 33 18 55 30 W 0,0
11.12.2019 15:00:00 13,2 0,9 25 13 46 25 W 0,0
11.12.2019 14:00:00 12,6 1,6 24 13 48 26 W 0,0
11.12.2019 13:00:00 12,0 1,9 27 14 45 25 W -
11.12.2019 12:00:00 11,4 3,2 23 12 47 26 W 0,0
11.12.2019 11:00:00 10,8 4,1 22 12 42 23 W 0,0
11.12.2019 10:00:00 10,1 4,7 19 10 41 22 W 0,0
11.12.2019 09:00:00 9,3 6,4 23 12 43 23 W 0,2
11.12.2019 08:00:00 9,6 8,5 25 13 56 30 W 0,6
11.12.2019 07:00:00 9,8 8,9 30 16 54 29 W -
11.12.2019 06:00:00 10,4 9,5 26 14 58 31 WNW 0,8
11.12.2019 05:00:00 11,8 10,4 37 20 65 35 WNW 0,2
11.12.2019 04:00:00 13,2 10,9 26 14 49 26 WNW 0,0
11.12.2019 03:00:00 10,8 5,1 9 5 19 10 SW 0,0
11.12.2019 02:00:00 9,1 5,8 15 8 18 10 S 0,0
11.12.2019 01:00:00 9,7 6,1 12 7 18 10 SSW -
11.12.2019 00:00:00 10,1 5,3 13 7 20 11 SSW 0,0
10.12.2019 23:00:00 9,3 5,9 15 8 19 10 SSW 0,0
10.12.2019 22:00:00 10,3 5,9 11 6 15 8 SSW 0,0
10.12.2019 21:00:00 10,4 7,1 11 6 13 7 SSW 0,0
10.12.2019 20:00:00 11,6 7,7 9 5 10 6 S 0,0
10.12.2019 19:00:00 12,4 8,7 4 2 29 16 SSW -
10.12.2019 18:00:00 12,8 9,1 17 9 26 14 WNW 0,0
10.12.2019 17:00:00 13,1 7,1 7 4 10 5 SSW 0,0
10.12.2019 16:00:00 14,1 8,3 5 3 8 4 S 0,0
10.12.2019 15:00:00 14,3 7,6 3 2 10 5 SSE 0,0
10.12.2019 14:00:00 13,9 7,0 1 1 11 6 S 0,0
10.12.2019 13:00:00 12,3 5,9 6 3 10 5 SSE -
10.12.2019 12:00:00 13,3 6,9 0 0 11 6 SSW 0,0
10.12.2019 11:00:00 8,4 5,9 10 6 15 8 SSW 0,0
10.12.2019 10:00:00 5,9 4,7 13 7 18 10 SSW 0,0
10.12.2019 09:00:00 5,5 3,0 10 5 18 10 SW 0,0
10.12.2019 08:00:00 5,2 3,5 14 8 19 10 SSW 0,0
10.12.2019 07:00:00 5,5 4,0 13 7 17 9 SSW -
10.12.2019 06:00:00 6,2 4,4 12 7 17 9 SSW 0,0
10.12.2019 05:00:00 5,9 4,2 12 6 16 9 SSW 0,0
10.12.2019 04:00:00 7,1 5,1 12 6 16 8 SSW 0,0
10.12.2019 03:00:00 7,3 5,3 12 7 18 10 S 0,0

tt = temperature
td = dewpoint
ff = wind speed
fx = gusts
dd = wind direction
rr = precipitation

Next stations